Time;durP1;ratioP1;P1;durP2;ratioP2;P2;SDS_P1;SDS_P2;PMS_P1;PMS_P2;Temp;Humidity;BMP_temperature;BMP_pressure;BME280_temperature;BME280_humidity;BME280_pressure;Samples;Min_cycle;Max_cycle;Signal;HPM_P1;HPM_P2
2023/02/16 00:00:49;;;;;;;33.83;19.53;;;;;;;3.15;100.00;101138.53;5080586;28;20510;-67
2023/02/16 00:03:18;;;;;;;38.53;20.70;;;;;;;3.33;100.00;101127.13;5080988;28;20510;-66
2023/02/16 00:05:45;;;;;;;37.30;21.33;;;;;;;3.46;100.00;101127.38;5080855;28;20479;-66
2023/02/16 00:08:12;;;;;;;36.97;21.10;;;;;;;3.39;100.00;101110.94;5080905;28;20611;-66
2023/02/16 00:10:40;;;;;;;35.93;21.63;;;;;;;3.80;100.00;101098.41;5080340;28;20459;-65
2023/02/16 00:16:02;;;;;;;37.00;20.33;;;;;;;3.78;100.00;101114.38;5092034;28;20552;-67
2023/02/16 00:18:30;;;;;;;32.87;21.00;;;;;;;4.10;100.00;101110.13;5080436;28;20460;-65
2023/02/16 00:20:56;;;;;;;35.33;20.53;;;;;;;4.28;100.00;101110.09;5080542;28;20480;-66
2023/02/16 00:23:23;;;;;;;32.67;19.37;;;;;;;4.24;100.00;101108.56;5081076;28;20475;-67
2023/02/16 00:25:50;;;;;;;33.67;19.43;;;;;;;4.31;100.00;101110.81;5080547;28;20470;-67
2023/02/16 00:28:19;;;;;;;34.93;20.77;;;;;;;4.42;100.00;101101.47;5082563;28;20492;-66
2023/02/16 00:30:45;;;;;;;35.07;20.90;;;;;;;4.41;100.00;101107.66;5096741;28;20555;-66
2023/02/16 00:33:14;;;;;;;33.90;19.60;;;;;;;4.45;100.00;101103.94;5104348;28;20485;-66
2023/02/16 00:35:43;;;;;;;30.07;20.27;;;;;;;4.56;100.00;101101.56;5104596;28;21062;-67
2023/02/16 00:38:10;;;;;;;31.40;19.50;;;;;;;4.52;100.00;101100.03;5086744;28;20574;-66
2023/02/16 00:40:37;;;;;;;30.77;19.77;;;;;;;4.47;100.00;101089.69;5094373;28;20491;-67
2023/02/16 00:43:03;;;;;;;30.03;18.80;;;;;;;4.44;100.00;101087.19;5099713;28;20445;-66
2023/02/16 00:45:32;;;;;;;34.67;20.27;;;;;;;4.47;100.00;101089.69;5084104;28;20479;-66
2023/02/16 00:47:58;;;;;;;36.20;21.90;;;;;;;4.43;100.00;101092.59;5086588;28;20830;-66
2023/02/16 00:50:28;;;;;;;30.70;18.70;;;;;;;4.55;100.00;101093.72;5087929;28;20490;-66
2023/02/16 00:52:57;;;;;;;31.83;20.10;;;;;;;4.64;100.00;101094.09;5088992;28;20454;-66
2023/02/16 00:55:25;;;;;;;34.03;20.83;;;;;;;4.67;100.00;101080.69;5103808;28;20448;-67
2023/02/16 00:57:54;;;;;;;32.63;19.07;;;;;;;4.75;100.00;101087.38;5102345;28;20484;-67
2023/02/16 01:00:23;;;;;;;31.03;19.77;;;;;;;4.86;100.00;101095.56;5103785;28;20493;-67
2023/02/16 01:02:51;;;;;;;34.57;19.60;;;;;;;4.91;100.00;101093.53;5103163;28;20531;-67
2023/02/16 01:05:17;;;;;;;33.87;20.07;;;;;;;4.83;100.00;101091.31;5093888;28;20470;-67
2023/02/16 01:13:28;;;;;;;34.90;21.73;;;;;;;4.86;100.00;101083.19;5045909;28;20450;-67
2023/02/16 01:15:55;;;;;;;35.43;20.47;;;;;;;4.83;100.00;101082.50;5072887;28;20469;-67
2023/02/16 01:18:21;;;;;;;40.87;21.10;;;;;;;4.89;100.00;101069.75;5083730;28;21291;-67
2023/02/16 01:20:48;;;;;;;34.67;19.87;;;;;;;4.85;100.00;101078.84;5102107;28;20538;-67
2023/02/16 01:23:15;;;;;;;32.20;20.80;;;;;;;4.85;100.00;101072.69;5090169;28;20529;-68
2023/02/16 01:25:43;;;;;;;37.47;21.17;;;;;;;4.77;100.00;101075.72;5083384;28;20489;-67
2023/02/16 01:28:18;;;;;;;30.83;19.73;;;;;;;4.84;100.00;101061.25;5062671;28;20454;-67
2023/02/16 01:30:44;;;;;;;29.23;19.60;;;;;;;4.90;100.00;101063.53;5073059;28;20520;-67
2023/02/16 01:33:11;;;;;;;35.33;19.83;;;;;;;4.84;100.00;101065.66;5083420;28;20434;-67
2023/02/16 01:35:38;;;;;;;33.87;21.30;;;;;;;4.87;100.00;101052.25;5100687;28;20465;-66
2023/02/16 01:38:04;;;;;;;38.57;21.30;;;;;;;4.93;100.00;101059.00;5103089;28;20515;-67
2023/02/16 01:40:44;;;;;;;35.30;21.13;;;;;;;4.94;100.00;101068.69;5103376;28;20599;-67
2023/02/16 01:43:18;;;;;;;36.27;20.97;;;;;;;4.85;100.00;101067.38;5103276;28;20555;-67
2023/02/16 01:45:48;;;;;;;33.27;20.90;;;;;;;4.95;100.00;101076.53;5098887;28;20476;-67
2023/02/16 01:48:21;;;;;;;34.33;20.47;;;;;;;4.68;100.00;101060.34;5083054;28;21047;-67
2023/02/16 01:50:52;;;;;;;35.83;21.40;;;;;;;4.48;100.00;101070.22;5083941;28;20500;-67
2023/02/16 01:53:21;;;;;;;39.17;22.00;;;;;;;4.72;100.00;101067.19;5082750;28;20565;-67
2023/02/16 01:55:53;;;;;;;34.97;21.57;;;;;;;4.62;100.00;101063.34;5082746;28;20497;-67
2023/02/16 01:58:34;;;;;;;37.50;22.70;;;;;;;4.80;100.00;101064.13;5081336;28;20479;-67
2023/02/16 02:01:39;;;;;;;36.50;22.10;;;;;;;4.53;100.00;101052.28;5068950;28;20893;-68
2023/02/16 02:06:56;;;;;;;36.97;21.50;;;;;;;4.32;100.00;101053.41;5092565;28;20568;-66
2023/02/16 02:09:26;;;;;;;39.93;22.20;;;;;;;4.37;100.00;101059.31;5086895;28;20479;-66
2023/02/16 02:11:57;;;;;;;38.27;21.50;;;;;;;4.32;100.00;101049.00;5086783;28;20487;-65
2023/02/16 02:14:27;;;;;;;40.73;21.00;;;;;;;4.46;100.00;101050.91;5081468;28;20458;-65
2023/02/16 02:16:56;;;;;;;36.13;21.37;;;;;;;4.53;100.00;101043.47;5081170;28;20505;-65
2023/02/16 02:19:22;;;;;;;36.77;22.10;;;;;;;4.59;100.00;101029.91;5077550;28;20582;-66
2023/02/16 02:25:30;;;;;;;36.03;23.10;;;;;;;4.40;100.00;101056.53;5046564;28;20480;-66
2023/02/16 02:28:03;;;;;;;35.13;20.17;;;;;;;4.58;100.00;101037.94;5081147;28;20460;-67
2023/02/16 02:30:42;;;;;;;32.83;20.60;;;;;;;4.70;100.00;101042.56;5081866;28;20472;-66
2023/02/16 02:33:35;;;;;;;40.00;21.90;;;;;;;4.57;100.00;101036.25;5082125;28;20533;-66
2023/02/16 02:36:10;;;;;;;35.03;20.33;;;;;;;4.40;100.00;101040.63;5081169;28;20500;-67
2023/02/16 02:38:41;;;;;;;34.53;22.93;;;;;;;4.40;100.00;101042.44;5082513;28;21007;-67
2023/02/16 02:41:13;;;;;;;32.90;20.80;;;;;;;4.29;100.00;101043.00;5081546;28;21036;-67
2023/02/16 02:43:44;;;;;;;37.07;22.00;;;;;;;4.40;100.00;101043.28;5081121;28;20516;-67
2023/02/16 02:46:14;;;;;;;39.53;22.20;;;;;;;4.44;100.00;101043.97;5083821;28;20509;-67
2023/02/16 02:48:41;;;;;;;32.90;21.07;;;;;;;4.59;100.00;101043.16;5102327;28;20460;-67
2023/02/16 02:51:32;;;;;;;34.90;20.60;;;;;;;4.85;100.00;101031.13;5086140;28;20496;-68
2023/02/16 03:02:22;;;;;;;37.93;23.30;;;;;;;4.34;100.00;101020.66;5101738;28;21074;-68
2023/02/16 03:04:49;;;;;;;39.70;21.00;;;;;;;4.28;100.00;101018.31;5101063;28;20510;-68
2023/02/16 03:07:16;;;;;;;37.57;22.10;;;;;;;4.35;100.00;101032.09;5090587;28;21186;-67
2023/02/16 03:09:43;;;;;;;43.17;22.53;;;;;;;4.44;100.00;101036.03;5081799;28;20479;-67
2023/02/16 03:14:57;;;;;;;36.40;20.97;;;;;;;4.22;100.00;101031.88;5096198;28;20458;-67
2023/02/16 03:31:17;;;;;;;38.80;22.30;;;;;;;4.64;100.00;101014.63;5081451;28;20578;-67
2023/02/16 03:33:44;;;;;;;42.00;24.90;;;;;;;4.58;100.00;101008.81;5080335;28;20470;-67
2023/02/16 03:36:10;;;;;;;35.90;21.70;;;;;;;4.66;100.00;101025.16;5092532;28;20527;-67
2023/02/16 03:38:38;;;;;;;40.80;22.73;;;;;;;4.68;100.00;101015.31;5100902;28;20461;-67
2023/02/16 03:41:05;;;;;;;40.30;22.20;;;;;;;4.62;100.00;101020.97;5094159;28;20490;-67
2023/02/16 03:43:32;;;;;;;35.83;21.63;;;;;;;4.71;100.00;101021.31;5081595;28;20459;-66
2023/02/16 03:45:59;;;;;;;38.43;22.23;;;;;;;4.74;100.00;101015.00;5080666;28;20506;-67
2023/02/16 03:48:27;;;;;;;40.90;23.50;;;;;;;4.81;100.00;101013.72;5081206;28;20457;-66
2023/02/16 03:50:54;;;;;;;39.50;22.77;;;;;;;4.89;100.00;101019.41;5095294;28;20506;-67
2023/02/16 03:53:20;;;;;;;38.43;21.70;;;;;;;4.79;100.00;101022.66;5087654;28;20435;-66
2023/02/16 03:55:48;;;;;;;43.87;23.83;;;;;;;4.78;100.00;101027.13;5101067;28;20468;-67
2023/02/16 03:58:16;;;;;;;39.67;23.47;;;;;;;4.68;100.00;101024.09;5099509;28;20476;-67
2023/02/16 04:00:43;;;;;;;36.73;22.20;;;;;;;4.79;100.00;101022.66;5100352;28;20495;-67
2023/02/16 04:03:09;;;;;;;38.47;22.87;;;;;;;4.67;100.00;101013.59;5105366;28;20491;-67
2023/02/16 04:05:38;;;;;;;39.17;22.00;;;;;;;4.60;100.00;101014.88;5104494;28;20649;-67
2023/02/16 04:08:05;;;;;;;39.97;23.20;;;;;;;4.62;100.00;101016.50;5093367;28;20476;-66
2023/02/16 04:10:32;;;;;;;34.93;22.20;;;;;;;4.72;100.00;101004.47;5084676;28;20488;-67
2023/02/16 04:12:57;;;;;;;37.77;22.30;;;;;;;4.74;100.00;101003.53;5084498;28;20514;-67
2023/02/16 04:15:26;;;;;;;41.73;23.67;;;;;;;4.73;100.00;101005.31;5086484;28;20477;-67
2023/02/16 04:17:53;;;;;;;37.57;23.10;;;;;;;4.79;100.00;101002.34;5105378;28;20560;-67
2023/02/16 04:20:21;;;;;;;38.93;22.30;;;;;;;4.84;100.00;101005.59;5103037;28;20506;-67
2023/02/16 04:22:49;;;;;;;46.60;24.47;;;;;;;4.89;100.00;101008.81;5104068;28;20450;-67
2023/02/16 04:25:16;;;;;;;37.50;22.10;;;;;;;4.88;100.00;101016.88;5084412;28;20546;-67
2023/02/16 04:27:43;;;;;;;41.43;24.20;;;;;;;4.99;100.00;100987.97;5084159;28;20471;-68
2023/02/16 04:30:12;;;;;;;40.33;23.80;;;;;;;4.89;100.00;101011.47;5082987;28;20482;-68
2023/02/16 04:32:38;;;;;;;39.03;22.43;;;;;;;4.99;100.00;101018.94;5105043;28;20510;-67
2023/02/16 04:35:06;;;;;;;40.00;24.37;;;;;;;5.00;100.00;101017.97;5090605;28;20464;-67
2023/02/16 04:37:33;;;;;;;40.43;24.80;;;;;;;5.02;100.00;101024.06;5086735;28;20529;-67
2023/02/16 04:40:01;;;;;;;36.80;23.10;;;;;;;5.01;100.00;101025.00;5082889;28;20569;-67
2023/02/16 04:42:27;;;;;;;42.80;24.30;;;;;;;4.77;100.00;101017.44;5096442;28;20481;-67
2023/02/16 04:44:54;;;;;;;42.73;25.10;;;;;;;4.79;100.00;101025.31;5099698;28;20548;-67
2023/02/16 04:47:21;;;;;;;43.43;23.83;;;;;;;4.75;100.00;101019.34;5104475;28;20514;-67
2023/02/16 04:49:48;;;;;;;45.00;23.10;;;;;;;4.76;100.00;101020.22;5084951;28;20446;-66
2023/02/16 04:52:15;;;;;;;38.60;24.50;;;;;;;4.77;100.00;101024.56;5084272;28;20587;-67
2023/02/16 04:54:42;;;;;;;39.67;22.40;;;;;;;4.68;100.00;101012.66;5083971;28;20454;-67
2023/02/16 04:57:10;;;;;;;35.90;22.70;;;;;;;4.65;100.00;101019.00;5094621;28;20481;-66
2023/02/16 04:59:37;;;;;;;46.57;23.90;;;;;;;4.50;100.00;101018.03;5082476;28;20482;-66
2023/02/16 05:02:04;;;;;;;38.87;21.90;;;;;;;4.46;100.00;101011.19;5079682;28;21089;-66
2023/02/16 05:04:30;;;;;;;40.47;23.30;;;;;;;4.42;100.00;101011.44;5082937;28;20986;-66
2023/02/16 05:06:57;;;;;;;38.07;24.33;;;;;;;4.45;100.00;101009.47;5082504;28;20885;-66
2023/02/16 05:09:24;;;;;;;40.57;21.40;;;;;;;4.56;100.00;101003.59;5089474;28;20510;-66
2023/02/16 05:14:43;;;;;;;45.27;23.80;;;;;;;4.56;100.00;101002.75;5098816;28;20482;-66
2023/02/16 05:17:10;;;;;;;43.70;23.53;;;;;;;4.57;100.00;100997.38;5081276;28;20553;-66
2023/02/16 05:19:38;;;;;;;47.73;24.60;;;;;;;4.63;100.00;101001.47;5082714;28;20481;-66
2023/02/16 05:22:04;;;;;;;37.47;23.23;;;;;;;4.52;100.00;101000.25;5083812;28;20478;-66
2023/02/16 05:24:33;;;;;;;43.30;24.23;;;;;;;4.39;100.00;100996.56;5093450;28;20480;-66
2023/02/16 05:27:00;;;;;;;40.47;23.40;;;;;;;4.36;100.00;101002.03;5081956;28;20475;-65
2023/02/16 05:29:26;;;;;;;42.13;24.47;;;;;;;4.33;100.00;101000.41;5079791;28;20475;-66
2023/02/16 05:31:54;;;;;;;37.60;23.07;;;;;;;4.34;100.00;100998.63;5081340;28;20481;-67
2023/02/16 05:34:21;;;;;;;44.50;24.03;;;;;;;4.40;100.00;100984.19;5082199;28;21015;-70
2023/02/16 05:36:47;;;;;;;47.87;23.87;;;;;;;4.38;100.00;100992.22;5081617;28;20513;-69
2023/02/16 05:39:14;;;;;;;43.97;25.30;;;;;;;4.37;100.00;100995.78;5081564;28;20540;-66
2023/02/16 05:41:41;;;;;;;42.93;23.93;;;;;;;4.34;100.00;100977.44;5079606;28;20514;-69
2023/02/16 05:44:08;;;;;;;42.83;25.03;;;;;;;4.46;100.00;100990.00;5081400;28;20556;-69
2023/02/16 05:46:36;;;;;;;42.70;25.00;;;;;;;4.39;100.00;100996.56;5081878;28;20515;-70
2023/02/16 05:49:05;;;;;;;48.17;25.80;;;;;;;4.40;100.00;101000.91;5081227;28;20488;-70
2023/02/16 05:51:32;;;;;;;45.40;23.37;;;;;;;4.42;100.00;101001.69;5081828;28;20476;-69
2023/02/16 05:53:59;;;;;;;44.37;23.80;;;;;;;4.44;100.00;101009.56;5082169;28;20481;-70
2023/02/16 05:56:26;;;;;;;49.87;25.43;;;;;;;4.46;100.00;101018.25;5092192;28;21117;-68
2023/02/16 05:58:53;;;;;;;46.80;23.87;;;;;;;4.39;100.00;101015.09;5080128;28;20501;-69
2023/02/16 06:01:19;;;;;;;44.40;23.30;;;;;;;4.37;100.00;101018.75;5081710;28;20489;-69
2023/02/16 06:03:46;;;;;;;54.80;26.70;;;;;;;4.42;100.00;101008.78;5080585;28;20498;-67
2023/02/16 06:06:14;;;;;;;45.07;24.27;;;;;;;4.53;100.00;101012.56;5079372;28;20573;-68
2023/02/16 06:08:41;;;;;;;43.37;23.83;;;;;;;4.70;100.00;101016.09;5080475;28;20454;-68
2023/02/16 06:11:34;;;;;;;44.53;25.07;;;;;;;4.60;100.00;101004.28;5089190;28;20551;-70
2023/02/16 06:13:56;;;;;;;38.53;24.50;;;;;;;4.63;100.00;101010.25;5078886;28;20446;-69
2023/02/16 06:16:24;;;;;;;46.60;24.80;;;;;;;4.55;100.00;101016.91;5080682;28;20474;-71
2023/02/16 06:18:51;;;;;;;47.77;23.47;;;;;;;4.62;100.00;101005.06;5082894;28;20527;-70
2023/02/16 06:21:19;;;;;;;41.20;24.80;;;;;;;4.61;100.00;101016.59;5081419;28;20514;-70
2023/02/16 06:23:45;;;;;;;42.50;23.10;;;;;;;4.66;100.00;100998.66;5086168;28;20445;-70
2023/02/16 06:26:12;;;;;;;48.00;23.20;;;;;;;4.65;100.00;101010.19;5080781;28;20469;-71
2023/02/16 06:28:38;;;;;;;42.03;23.50;;;;;;;4.62;100.00;101019.16;5077287;28;20581;-71
2023/02/16 06:31:05;;;;;;;36.07;21.53;;;;;;;4.64;100.00;101013.78;5077387;28;20505;-70
2023/02/16 06:33:32;;;;;;;44.67;24.90;;;;;;;4.76;100.00;101009.63;5078216;28;20438;-71
2023/02/16 06:35:58;;;;;;;42.07;23.93;;;;;;;4.72;100.00;101015.06;5101240;28;20476;-71
2023/02/16 06:38:26;;;;;;;37.77;23.00;;;;;;;4.72;100.00;101014.19;5082957;28;20480;-70
2023/02/16 06:40:53;;;;;;;40.67;23.27;;;;;;;4.70;100.00;100989.59;5080453;28;20482;-71
2023/02/16 06:43:20;;;;;;;42.40;23.50;;;;;;;4.83;100.00;101016.28;5092464;28;20476;-70
2023/02/16 06:45:48;;;;;;;41.73;24.87;;;;;;;4.84;100.00;101020.63;5079664;28;20470;-70
2023/02/16 06:48:14;;;;;;;44.40;23.13;;;;;;;4.85;100.00;101022.34;5080745;28;20550;-70
2023/02/16 06:50:41;;;;;;;42.07;22.67;;;;;;;4.94;100.00;101028.94;5080592;28;20883;-69
2023/02/16 06:53:08;;;;;;;33.87;21.67;;;;;;;5.02;100.00;101032.84;5081137;28;20440;-70
2023/02/16 06:55:36;;;;;;;41.07;23.07;;;;;;;5.03;100.00;101037.19;5079659;28;20558;-71
2023/02/16 06:58:03;;;;;;;35.87;23.30;;;;;;;5.04;100.00;101025.66;5077334;28;20529;-70
2023/02/16 07:00:29;;;;;;;39.23;23.17;;;;;;;5.16;100.00;101025.94;5079820;28;20983;-70
2023/02/16 07:02:56;;;;;;;42.07;25.40;;;;;;;5.24;100.00;101027.22;5089895;28;20467;-68
2023/02/16 07:05:23;;;;;;;35.97;21.20;;;;;;;5.23;100.00;101020.19;5085333;28;20455;-70
2023/02/16 07:07:49;;;;;;;37.10;22.60;;;;;;;5.28;100.00;101025.25;5076875;28;20462;-70
2023/02/16 07:10:16;;;;;;;36.57;21.87;;;;;;;5.33;100.00;101041.75;5085163;28;20479;-70
2023/02/16 07:12:44;;;;;;;41.70;21.53;;;;;;;5.31;100.00;101042.75;5092553;28;20484;-71
2023/02/16 07:15:11;;;;;;;32.77;21.20;;;;;;;5.52;100.00;101038.88;5076581;28;20520;-69
2023/02/16 07:17:37;;;;;;;37.20;21.57;;;;;;;5.73;100.00;101051.81;5067522;28;20446;-70
2023/02/16 07:20:05;;;;;;;38.93;21.30;;;;;;;5.85;100.00;101030.75;5078955;28;20492;-70
2023/02/16 07:22:32;;;;;;;39.97;22.50;;;;;;;5.96;100.00;101038.09;5081414;28;21023;-70
2023/02/16 07:24:59;;;;;;;34.37;21.33;;;;;;;6.21;100.00;101037.50;5086858;28;20484;-71
2023/02/16 07:27:26;;;;;;;38.27;20.67;;;;;;;6.39;100.00;101032.00;5080583;28;20476;-70
2023/02/16 07:29:54;;;;;;;33.47;21.87;;;;;;;6.64;100.00;101033.13;5080103;28;20527;-68
2023/02/16 07:32:21;;;;;;;38.90;22.90;;;;;;;6.64;100.00;101039.28;5065519;28;20468;-69
2023/02/16 07:34:48;;;;;;;34.17;21.43;;;;;;;6.84;100.00;101042.50;5080150;28;20463;-69
2023/02/16 07:37:15;;;;;;;32.17;20.30;;;;;;;6.69;100.00;101049.63;5077536;28;20489;-69
2023/02/16 07:39:41;;;;;;;34.20;20.70;;;;;;;6.81;100.00;101018.78;5080037;28;20981;-70
2023/02/16 07:42:08;;;;;;;35.37;21.60;;;;;;;7.05;99.41;101030.50;5082310;28;20519;-69
2023/02/16 07:44:35;;;;;;;37.00;22.03;;;;;;;7.06;98.37;101016.25;5078444;28;20652;-69
2023/02/16 07:47:04;;;;;;;41.20;22.37;;;;;;;7.36;97.53;101015.22;5076602;28;20488;-69
2023/02/16 07:49:31;;;;;;;41.40;21.27;;;;;;;7.27;97.18;101007.81;5079813;28;20502;-70
2023/02/16 07:51:57;;;;;;;32.63;20.97;;;;;;;7.67;95.45;101018.47;5091819;28;20517;-70
2023/02/16 07:54:24;;;;;;;30.67;19.37;;;;;;;7.65;92.50;101007.09;5099396;28;20491;-69
2023/02/16 07:56:51;;;;;;;37.53;21.30;;;;;;;7.95;91.05;101000.63;5077005;28;20480;-68
2023/02/16 07:59:17;;;;;;;32.20;20.47;;;;;;;7.53;92.77;101009.63;5080128;28;20875;-69
2023/02/16 08:01:44;;;;;;;38.77;22.60;;;;;;;7.71;93.15;101017.34;5084310;28;21017;-71
2023/02/16 08:04:12;;;;;;;35.20;21.10;;;;;;;7.65;94.19;101020.41;5076555;28;20488;-72
2023/02/16 08:06:39;;;;;;;36.33;20.80;;;;;;;7.82;93.64;101020.09;5077758;28;20511;-71
2023/02/16 08:09:05;;;;;;;29.90;18.97;;;;;;;7.85;92.90;101024.38;5079629;28;20684;-74
2023/02/16 08:11:32;;;;;;;32.90;20.03;;;;;;;7.75;91.69;101020.63;5079136;28;20474;-71
2023/02/16 08:13:59;;;;;;;31.60;19.93;;;;;;;7.73;92.24;101028.72;5078931;28;20460;-72
2023/02/16 08:16:27;;;;;;;30.23;18.30;;;;;;;7.31;93.41;101023.50;5078253;28;20487;-71
2023/02/16 08:18:56;;;;;;;32.70;21.10;;;;;;;7.17;95.37;101018.22;5088459;28;20457;-71
2023/02/16 08:21:26;;;;;;;32.20;20.00;;;;;;;7.26;94.29;101000.81;5086255;28;20736;-71
2023/02/16 08:23:54;;;;;;;33.07;20.70;;;;;;;7.37;94.03;101013.41;5090474;28;20544;-71
2023/02/16 08:26:22;;;;;;;31.00;19.87;;;;;;;7.53;93.34;101009.63;5093406;28;20477;-71
2023/02/16 08:28:50;;;;;;;30.70;18.60;;;;;;;7.33;93.68;101010.94;5079152;28;21203;-71
2023/02/16 08:31:21;;;;;;;32.00;19.87;;;;;;;7.28;94.27;101020.19;5092181;28;20471;-72
2023/02/16 08:33:48;;;;;;;32.07;19.00;;;;;;;7.16;95.39;101014.69;5079734;28;20504;-71
2023/02/16 08:36:22;;;;;;;33.40;19.80;;;;;;;7.37;93.90;101011.59;5079324;28;20575;-72
2023/02/16 08:38:51;;;;;;;33.30;19.70;;;;;;;7.35;93.77;101013.50;5080532;28;20462;-71
2023/02/16 08:41:18;;;;;;;35.43;20.70;;;;;;;7.08;95.43;101022.34;5058877;28;20868;-71
2023/02/16 08:43:44;;;;;;;38.10;21.00;;;;;;;7.08;94.72;101016.16;5067818;28;20524;-71
2023/02/16 08:46:11;;;;;;;29.87;19.17;;;;;;;7.27;94.43;101021.13;5078983;28;20483;-70
2023/02/16 08:48:38;;;;;;;29.93;18.20;;;;;;;7.28;94.75;101006.88;5098812;28;20448;-72
2023/02/16 08:51:06;;;;;;;35.83;19.87;;;;;;;7.28;93.21;101002.41;5103236;28;20493;-71
2023/02/16 08:53:33;;;;;;;35.30;19.83;;;;;;;7.34;93.98;101011.78;5093266;28;20448;-72
2023/02/16 08:56:05;;;;;;;30.27;18.37;;;;;;;7.55;92.82;101009.50;5082146;28;21163;-72
2023/02/16 08:58:32;;;;;;;34.03;19.90;;;;;;;7.64;93.97;101018.72;5081713;28;20459;-71
2023/02/16 09:01:04;;;;;;;32.57;20.67;;;;;;;7.79;90.58;101006.16;5087683;28;20511;-71
2023/02/16 09:03:31;;;;;;;32.70;19.20;;;;;;;7.83;91.14;101012.97;5076915;28;20560;-72
2023/02/16 09:06:01;;;;;;;30.57;18.40;;;;;;;7.86;90.10;101013.63;5099109;28;20503;-72
2023/02/16 09:08:28;;;;;;;37.03;20.50;;;;;;;7.85;89.53;101019.91;5101051;28;20447;-72
2023/02/16 09:10:55;;;;;;;33.13;20.30;;;;;;;8.22;89.36;101008.53;5081987;28;20588;-70
2023/02/16 09:13:23;;;;;;;31.10;19.07;;;;;;;8.22;86.94;101011.19;5085197;28;20474;-71
2023/02/16 09:15:50;;;;;;;27.20;18.33;;;;;;;8.36;87.24;101011.09;5088233;28;20511;-72
2023/02/16 09:18:17;;;;;;;29.17;19.07;;;;;;;8.50;85.07;100987.97;5104690;28;20446;-74
2023/02/16 09:20:44;;;;;;;34.40;21.63;;;;;;;8.42;84.70;101010.69;5103617;28;20456;-74
2023/02/16 09:23:11;;;;;;;33.40;20.23;;;;;;;8.47;85.08;101005.91;5102074;28;20478;-73
2023/02/16 09:25:40;;;;;;;33.83;20.43;;;;;;;8.29;84.82;101004.47;5083747;28;20915;-72
2023/02/16 09:28:08;;;;;;;29.63;19.43;;;;;;;8.51;85.50;101006.53;5102701;28;20454;-74
2023/02/16 09:30:37;;;;;;;31.30;18.20;;;;;;;8.87;85.19;101018.19;5090513;28;20464;-74
2023/02/16 09:33:04;;;;;;;28.23;19.10;;;;;;;9.06;83.71;101039.03;5088951;28;20477;-75
2023/02/16 09:35:31;;;;;;;34.23;21.07;;;;;;;8.95;82.55;101042.47;5084823;28;20452;-72
2023/02/16 09:37:58;;;;;;;38.70;20.50;;;;;;;9.07;80.87;101026.56;5091497;28;20499;-73
2023/02/16 09:40:24;;;;;;;36.03;19.93;;;;;;;9.45;78.98;101041.56;5088386;28;20446;-69
2023/02/16 09:43:00;;;;;;;29.67;19.00;;;;;;;9.27;80.32;101033.09;5105161;28;20479;-74
2023/02/16 09:45:28;;;;;;;30.97;20.10;;;;;;;9.74;76.63;101042.91;5098582;28;20522;-73
2023/02/16 09:47:58;;;;;;;29.20;20.23;;;;;;;10.78;71.22;101043.84;5094673;28;20448;-74
2023/02/16 09:50:26;;;;;;;33.30;20.40;;;;;;;10.49;69.57;101038.13;5088137;28;20486;-73
2023/02/16 09:52:55;;;;;;;31.07;19.60;;;;;;;10.34;72.19;101040.16;5104541;28;20439;-72
2023/02/16 09:55:23;;;;;;;31.07;21.07;;;;;;;11.00;68.76;101028.72;5086211;28;20480;-74
2023/02/16 09:57:57;;;;;;;33.10;20.27;;;;;;;10.56;69.22;101031.31;5084553;28;20449;-74
2023/02/16 10:00:41;;;;;;;28.30;19.70;;;;;;;10.25;72.30;101027.50;5085797;28;20483;-73
2023/02/16 10:03:21;;;;;;;30.63;20.30;;;;;;;10.46;71.08;101025.84;5084124;28;20491;-73
2023/02/16 10:05:53;;;;;;;29.47;19.73;;;;;;;10.28;71.35;101027.25;5082696;28;20535;-74
2023/02/16 10:08:26;;;;;;;28.50;19.10;;;;;;;9.99;72.72;101025.00;5093311;28;20440;-75
2023/02/16 10:10:59;;;;;;;32.03;19.80;;;;;;;10.39;73.34;101029.97;5102772;28;20486;-74
2023/02/16 10:13:32;;;;;;;33.47;20.00;;;;;;;10.38;71.25;101035.44;5071313;28;21036;-75
2023/02/16 10:16:00;;;;;;;31.73;20.47;;;;;;;10.21;71.71;101039.38;5082528;28;20514;-73
2023/02/16 10:18:32;;;;;;;33.03;20.10;;;;;;;10.05;72.11;101037.91;5089844;28;20488;-74
2023/02/16 10:21:01;;;;;;;32.20;20.10;;;;;;;9.42;77.32;101031.97;5102408;28;20481;-73
2023/02/16 10:23:38;;;;;;;30.10;19.90;;;;;;;9.24;79.65;101026.19;5081349;28;20453;-73
2023/02/16 10:26:11;;;;;;;31.60;20.30;;;;;;;9.03;80.63;101028.59;5083435;28;20470;-74
2023/02/16 10:28:41;;;;;;;29.67;18.80;;;;;;;9.45;78.81;101017.56;5082404;28;20489;-73
2023/02/16 10:31:13;;;;;;;34.43;18.90;;;;;;;9.45;79.29;101031.75;5082253;28;20470;-73
2023/02/16 10:33:43;;;;;;;34.57;21.00;;;;;;;9.40;79.41;101023.22;5082899;28;20450;-73
2023/02/16 10:36:26;;;;;;;29.93;19.83;;;;;;;9.69;78.99;101031.72;5083168;28;20482;-73
2023/02/16 10:38:57;;;;;;;32.00;19.50;;;;;;;9.78;78.50;101028.34;5088562;28;20529;-73
2023/02/16 10:41:30;;;;;;;29.73;19.20;;;;;;;9.73;77.35;101035.84;5096837;28;20517;-74
2023/02/16 10:44:00;;;;;;;32.47;21.00;;;;;;;9.78;78.69;101031.00;5081304;28;21048;-73
2023/02/16 10:46:31;;;;;;;31.60;19.47;;;;;;;9.82;78.30;101031.63;5082059;28;20518;-75
2023/02/16 10:49:00;;;;;;;32.90;19.70;;;;;;;9.65;79.45;101032.06;5093764;28;20484;-73
2023/02/16 10:51:30;;;;;;;30.67;19.37;;;;;;;9.53;79.23;101026.69;5092467;28;20467;-74
2023/02/16 10:53:59;;;;;;;32.70;19.70;;;;;;;9.48;80.50;101020.84;5093567;28;20465;-74
2023/02/16 10:56:48;;;;;;;31.23;20.00;;;;;;;9.56;81.11;101022.91;5091752;28;20742;-74
2023/02/16 10:59:16;;;;;;;33.53;20.77;;;;;;;9.82;80.87;101026.28;5095029;28;20462;-74
2023/02/16 11:01:45;;;;;;;30.20;21.00;;;;;;;9.65;80.95;101034.72;5075658;28;20578;-73
2023/02/16 11:04:32;;;;;;;33.93;21.10;;;;;;;9.76;81.70;101027.63;5086521;28;20491;-73
2023/02/16 11:07:04;;;;;;;29.23;19.47;;;;;;;9.77;80.20;101029.34;5084717;28;20502;-73
2023/02/16 11:09:31;;;;;;;29.17;20.27;;;;;;;9.84;80.44;101015.50;5091548;28;20462;-73
2023/02/16 11:11:57;;;;;;;33.97;21.73;;;;;;;9.69;81.56;101018.38;5080792;28;20476;-72
2023/02/16 11:14:28;;;;;;;38.07;21.73;;;;;;;9.65;83.12;101002.69;5085213;28;20459;-73
2023/02/16 11:17:06;;;;;;;33.63;21.57;;;;;;;9.93;79.91;101004.09;5079949;28;20504;-74
2023/02/16 11:19:35;;;;;;;34.30;21.70;;;;;;;9.95;79.18;101011.03;5077579;28;20547;-73
2023/02/16 11:22:02;;;;;;;33.43;20.57;;;;;;;9.83;79.95;101008.47;5080243;28;20491;-73
2023/02/16 11:24:31;;;;;;;29.70;20.83;;;;;;;9.89;82.55;101008.81;5093709;28;20882;-73
2023/02/16 11:27:03;;;;;;;28.10;19.50;;;;;;;9.98;80.34;101007.25;5081128;28;20483;-73
2023/02/16 11:29:30;;;;;;;27.70;19.63;;;;;;;10.09;78.70;101009.97;5080046;28;20484;-74
2023/02/16 11:31:57;;;;;;;34.83;21.57;;;;;;;10.24;80.83;100997.25;5077703;28;20522;-74
2023/02/16 11:34:30;;;;;;;30.03;19.73;;;;;;;10.05;79.04;101005.84;5076674;28;20494;-70
2023/02/16 11:37:04;;;;;;;30.90;20.50;;;;;;;10.21;79.80;101001.97;5077781;28;20487;-71
2023/02/16 11:39:34;;;;;;;29.60;20.03;;;;;;;10.10;80.99;100997.47;5082299;28;20469;-70
2023/02/16 11:42:03;;;;;;;30.60;19.20;;;;;;;10.36;81.09;101000.78;5077797;28;20993;-71
2023/02/16 11:44:32;;;;;;;36.00;21.70;;;;;;;10.24;83.28;101001.72;5091246;28;20491;-71
2023/02/16 11:47:01;;;;;;;31.80;21.80;;;;;;;10.30;80.90;100994.09;5091483;28;20476;-71
2023/02/16 11:49:31;;;;;;;31.13;21.27;;;;;;;10.49;81.97;100995.34;5080777;28;20452;-71
2023/02/16 11:51:58;;;;;;;29.83;20.87;;;;;;;10.29;82.06;100996.88;5092600;28;20480;-70
2023/02/16 11:54:26;;;;;;;29.23;20.10;;;;;;;9.93;83.73;100993.41;5092713;28;20470;-70
2023/02/16 11:57:05;;;;;;;36.87;22.90;;;;;;;9.86;86.63;100994.84;5093386;28;20484;-71
2023/02/16 11:59:35;;;;;;;41.27;22.87;;;;;;;9.92;85.28;100991.72;5080502;28;20467;-70
2023/02/16 12:02:36;;;;;;;30.60;20.00;;;;;;;9.97;86.48;100998.41;5100757;28;21072;-69